Staves, Arkansas
Current Conditions -  °F | °C
As of 7:53 PM on Thursday 18 Dec 2014 (Local Time) from KPBF Reporting Station
Overcast Overcast  
Wind Chill: 38°   Ceiling: 600
Heat Index: 43°   Visibility: 7mi
Dew Point: 40°   Wind: 9mph
Humidity: 89%   Direction: 20°NNE
Pressure: 30.22"   Gusts: NA
Location:  33.947°N, 92.1633°W
Report Text: KPBF 190153Z AUTO 02008KT 7SM OVC006 06/04 A3022 RMK AO2 SLP233 T00610044
Loading
Personal Weather Stations






























Interactive Weather Map New forecast layout! Learn more

10-Day Weather Forecast

Advertisements
Track Severe Weather on mobile